Homestown, Missouri
Current Conditions -  °F | °C
As of 4:35 PM on Sunday 23 Nov 2014 (Local Time) from KHKA Reporting Station
Light Rain Light Rain  
Wind Chill: 63°   Ceiling: 2400
Heat Index: 63°   Visibility: 7mi
Dew Point: 58°   Wind: 3mph
Humidity: 84%   Direction: 300°WNW
Pressure: 29.33"   Gusts: NA
Location:  36.3524°N, 89.8327°W
Report Text: KHKA 232235Z AUTO 30003KT 7SM -RA FEW012 BKN024 OVC029 17/14 A2933 RMK AO2 P0005 T01720144 $
Loading
Personal Weather Stations






























Interactive Weather Map New forecast layout! Learn more

10-Day Weather Forecast

Advertisements
Track Severe Weather on mobile